Troy Mills, IA (52344)

5:22 AM CDT on March 30, 2017 (GMT -0500)
Rural Northern Linn County | | Change Station

Elev 909 ft 42.27 °N, 91.60 °W | Updated 1 minute ago

Rain
Rain
41.1 °F
Feels Like 35 °F
N
9.9
Wind Variable Wind from East
Gusts 14.9 mph

Today
High -- | Low -- °F
--% Chance of Precip.
Yesterday
High -- | Low -- °F
Precip. -- in
Pressure 29.75 in
Visibility 7.0 miles
Clouds Overcast 1000 ft
Windchill 35 °F
Dew Point 36 °F
Humidity 75%
Rainfall 0.09 in
Snow Depth Not available.
6:52 AM 7:30 PM
Waxing Crescent, 7% visible
METAR KVTI 301015Z AUTO 07015G20KT 7SM -RA OVC010 05/03 A2975 RMK AO2
Pressure 29.75 in
Visibility 7.0 miles
Clouds Overcast 1000 ft
Windchill 35 °F
Dew Point 36 °F
Humidity 75%
Rainfall 0.09 in
Snow Depth Not available.
6:52 AM 7:30 PM
Waxing Crescent, 7% visible
METAR KVTI 301015Z AUTO 07015G20KT 7SM -RA OVC010 05/03 A2975 RMK AO2

Get Severe Weather Alerts

Thanks for signing up!

Be on the lookout for a verification email in your inbox.

You'll start receiving the daily forecast at 8 AM.

×

10-Day Weather Forecast

Almanac

Astronomy

Mar. 30, 2017 Rise Set
Actual Time
Civil Twilight
Nautical Twilight
Astronomical Twilight
Moon
Length of Visible Light
Length of Day
Tomorrow will be .
, % of the Moon is Illuminated

Today's Extremes

State Highs State Lows

Community

WunderPhotos

Upload Photos

1,962,540 photos uploaded!

WunderBlog® & News

Nearby

Air Quality

  Air Quality AQ Index Pollutant
Not available.

Snow Depth

Station Depth Elevation

Earthquake Activity

City Distance Mag. Time & Date
Minimum magnitude displayed is 2.5.

Earthquake Activity

City Distance Mag. Time & Date
Minimum magnitude displayed is 2.5.

Coastal Water Temperatures

Place Temperature

Stations

Nearby Weather Stations

Station Location Temp. Windchill Dew Point Humidity Wind Precip. Elev Updated Type
                   

Watches & Warnings

There are currently no watches in effect.